Time;durP1;ratioP1;P1;durP2;ratioP2;P2;SDS_P1;SDS_P2;PMS_P1;PMS_P2;Temp;Humidity;BMP_temperature;BMP_pressure;BME280_temperature;BME280_humidity;BME280_pressure;Samples;Min_cycle;Max_cycle;Signal;HPM_P1;HPM_P2
2023/12/27 00:00:09;;;;;;;0.80;0.50;;;;;;;5.23;100.00;101225.16;4971732;28;20196;-64
2023/12/27 00:02:38;;;;;;;2.20;1.55;;;;;;;5.07;100.00;101225.09;4964517;28;20593;-64
2023/12/27 00:05:08;;;;;;;1.63;0.70;;;;;;;5.02;100.00;101227.41;4972667;28;20219;-63
2023/12/27 00:07:38;;;;;;;1.00;0.63;;;;;;;4.90;100.00;101237.53;4967026;28;20229;-63
2023/12/27 00:10:08;;;;;;;3.00;1.25;;;;;;;4.80;100.00;101234.94;4964860;28;20282;-64
2023/12/27 00:12:37;;;;;;;2.45;1.38;;;;;;;4.75;100.00;101236.41;4972572;28;20199;-63
2023/12/27 00:15:06;;;;;;;1.95;1.25;;;;;;;4.70;100.00;101238.72;4969892;28;20215;-65
2023/12/27 00:17:35;;;;;;;2.45;0.80;;;;;;;4.59;100.00;101239.84;4965353;28;20196;-64
2023/12/27 00:20:05;;;;;;;1.02;0.75;;;;;;;4.57;100.00;101249.00;4971177;28;20210;-65
2023/12/27 00:22:33;;;;;;;0.98;0.50;;;;;;;4.42;100.00;101248.72;4966970;28;20202;-63
2023/12/27 00:25:04;;;;;;;0.90;0.55;;;;;;;4.46;100.00;101255.44;4968322;28;20245;-65
2023/12/27 00:27:33;;;;;;;2.50;1.05;;;;;;;4.42;100.00;101248.72;4971194;28;20192;-62
2023/12/27 00:30:02;;;;;;;0.80;0.40;;;;;;;4.40;100.00;101248.03;4971247;28;20196;-64
2023/12/27 00:32:31;;;;;;;10.82;0.70;;;;;;;4.34;100.00;101254.84;4967980;28;20276;-65
2023/12/27 00:35:00;;;;;;;2.85;1.10;;;;;;;4.35;100.00;101263.72;4965066;28;20223;-65
2023/12/27 00:37:29;;;;;;;1.20;0.80;;;;;;;4.30;100.00;101268.72;4973573;28;20207;-64
2023/12/27 00:39:58;;;;;;;1.45;0.70;;;;;;;4.26;100.00;101272.69;4963246;28;20223;-64
2023/12/27 00:42:28;;;;;;;1.27;1.05;;;;;;;4.24;100.00;101274.66;4972781;28;20199;-64
2023/12/27 00:44:57;;;;;;;3.85;1.50;;;;;;;4.26;100.00;101284.22;4969476;28;20219;-65
2023/12/27 00:47:25;;;;;;;2.10;1.00;;;;;;;4.09;100.00;101292.25;4972106;28;20195;-63
2023/12/27 00:49:54;;;;;;;1.38;0.70;;;;;;;4.19;100.00;101293.03;4968056;28;20200;-64
2023/12/27 00:52:23;;;;;;;2.63;1.10;;;;;;;4.20;100.00;101300.06;4963089;28;20303;-63
2023/12/27 00:54:53;;;;;;;1.20;0.65;;;;;;;4.09;100.00;101302.97;4967981;28;20219;-65
2023/12/27 00:57:21;;;;;;;2.10;0.93;;;;;;;4.11;100.00;101301.00;4957345;28;20223;-63
2023/12/27 00:59:52;;;;;;;1.13;0.95;;;;;;;4.04;100.00;101305.25;4965686;28;20227;-64
2023/12/27 01:02:22;;;;;;;1.10;0.50;;;;;;;4.04;100.00;101302.56;4970191;28;20223;-65
2023/12/27 01:04:52;;;;;;;1.30;1.08;;;;;;;4.08;100.00;101309.31;4973396;28;20273;-64
2023/12/27 01:07:22;;;;;;;0.80;0.50;;;;;;;4.03;100.00;101314.25;4975828;28;20202;-65
2023/12/27 01:09:51;;;;;;;2.00;1.02;;;;;;;3.99;100.00;101307.53;4967728;28;20192;-64
2023/12/27 01:12:20;;;;;;;2.58;1.65;;;;;;;4.03;100.00;101314.25;4968786;28;20199;-61
2023/12/27 01:14:51;;;;;;;1.75;0.68;;;;;;;3.94;100.00;101316.84;4970575;28;20262;-65
2023/12/27 01:17:19;;;;;;;4.22;0.80;;;;;;;4.11;100.00;101322.41;4967481;28;20215;-62
2023/12/27 01:19:48;;;;;;;6.82;1.55;;;;;;;4.15;100.00;101331.81;4971133;28;20676;-64
2023/12/27 01:22:17;;;;;;;6.05;0.63;;;;;;;4.22;100.00;101333.75;4960688;28;20730;-64
2023/12/27 01:24:46;;;;;;;6.25;0.93;;;;;;;4.37;100.00;101339.44;4961459;28;20223;-64
2023/12/27 01:27:15;;;;;;;2.20;0.85;;;;;;;4.51;100.00;101343.41;4970436;28;20694;-64
2023/12/27 01:29:44;;;;;;;1.45;0.85;;;;;;;4.57;100.00;101349.03;4965975;28;20202;-62
2023/12/27 01:32:14;;;;;;;4.20;0.90;;;;;;;4.51;100.00;101360.34;4963009;28;20230;-64
2023/12/27 01:34:43;;;;;;;1.30;0.80;;;;;;;4.57;100.00;101366.94;4971499;28;20570;-65
2023/12/27 01:37:12;;;;;;;0.90;0.75;;;;;;;4.54;100.00;101378.81;4967351;28;20779;-66
2023/12/27 01:39:41;;;;;;;1.20;0.63;;;;;;;4.53;100.00;101366.41;4969769;28;20443;-65
2023/12/27 01:42:10;;;;;;;1.25;0.60;;;;;;;4.59;100.00;101381.91;4956256;28;20358;-65
2023/12/27 01:44:40;;;;;;;1.67;0.60;;;;;;;4.56;100.00;101382.19;4964200;28;20199;-65
2023/12/27 01:47:08;;;;;;;0.80;0.50;;;;;;;4.47;100.00;101383.09;4961926;28;20200;-63
2023/12/27 01:49:38;;;;;;;1.25;0.50;;;;;;;4.33;100.00;101391.63;4965078;28;20710;-64
2023/12/27 01:52:10;;;;;;;1.50;1.00;;;;;;;4.25;100.00;101389.72;4967066;28;20286;-64
2023/12/27 01:54:40;;;;;;;2.75;0.75;;;;;;;4.16;100.00;101403.16;4971897;28;20291;-65
2023/12/27 01:57:09;;;;;;;3.53;0.98;;;;;;;4.11;100.00;101400.94;4963040;28;20711;-64
2023/12/27 01:59:37;;;;;;;1.42;0.60;;;;;;;4.04;100.00;101393.63;4967718;28;20227;-65
2023/12/27 02:02:06;;;;;;;1.05;0.85;;;;;;;4.04;100.00;101396.28;4966737;28;20199;-65
2023/12/27 02:04:35;;;;;;;2.67;1.02;;;;;;;4.04;100.00;101396.28;4971093;28;20277;-60
2023/12/27 02:07:06;;;;;;;3.55;0.88;;;;;;;4.02;100.00;101392.94;4968682;28;20567;-63
2023/12/27 02:09:50;;;;;;;4.43;0.68;;;;;;;3.96;100.00;101390.84;4965932;28;20199;-64
2023/12/27 02:12:27;;;;;;;1.30;0.57;;;;;;;3.93;100.00;101384.78;4961920;28;20199;-64
2023/12/27 02:14:56;;;;;;;1.48;0.70;;;;;;;3.88;100.00;101397.75;4980192;28;20725;-64
2023/12/27 02:17:26;;;;;;;0.80;0.63;;;;;;;3.76;100.00;101398.09;4966055;28;20577;-64
2023/12/27 02:19:56;;;;;;;1.10;0.70;;;;;;;3.76;100.00;101404.31;4972096;28;20288;-65
2023/12/27 02:22:28;;;;;;;1.50;0.93;;;;;;;3.72;100.00;101400.25;4964814;28;20697;-64
2023/12/27 02:24:58;;;;;;;1.00;0.60;;;;;;;3.82;100.00;101398.38;4961850;28;20226;-64
2023/12/27 02:27:27;;;;;;;0.90;0.50;;;;;;;3.90;100.00;101403.84;4972318;28;20200;-63
2023/12/27 02:29:56;;;;;;;4.25;1.67;;;;;;;3.82;100.00;101409.09;4964598;28;20195;-61
2023/12/27 02:32:26;;;;;;;3.63;0.98;;;;;;;3.83;100.00;101400.03;4965862;28;20223;-64
2023/12/27 02:34:55;;;;;;;0.80;0.50;;;;;;;3.75;100.00;101399.94;4969072;28;20254;-64
2023/12/27 02:37:24;;;;;;;1.33;0.60;;;;;;;3.76;100.00;101395.44;4976076;28;20208;-66
2023/12/27 02:39:53;;;;;;;0.82;0.60;;;;;;;3.76;100.00;101393.59;4967278;28;20228;-64
2023/12/27 02:42:23;;;;;;;2.75;2.08;;;;;;;3.79;100.00;101387.94;4969265;28;20196;-65
2023/12/27 02:44:53;;;;;;;1.25;0.77;;;;;;;3.74;100.00;101398.25;4972101;28;20212;-64
2023/12/27 02:47:22;;;;;;;1.98;0.85;;;;;;;3.74;100.00;101403.59;4969217;28;20207;-64
2023/12/27 02:49:51;;;;;;;1.65;0.60;;;;;;;3.72;100.00;101392.22;4975069;28;20200;-64
2023/12/27 02:52:20;;;;;;;1.55;0.93;;;;;;;3.76;100.00;101393.59;4975117;28;20207;-65
2023/12/27 02:54:49;;;;;;;1.33;1.23;;;;;;;3.81;100.00;101391.31;4971038;28;20223;-66
2023/12/27 02:57:17;;;;;;;1.17;0.80;;;;;;;3.82;100.00;101389.50;4969027;28;20227;-65
2023/12/27 02:59:49;;;;;;;0.80;0.50;;;;;;;3.80;100.00;101378.06;4971828;28;20209;-64
2023/12/27 03:02:17;;;;;;;3.35;0.70;;;;;;;3.82;100.00;101385.00;4972346;28;20310;-66
2023/12/27 03:04:46;;;;;;;0.80;0.50;;;;;;;3.83;100.00;101383.97;4968928;28;20219;-63
2023/12/27 03:07:15;;;;;;;1.48;0.50;;;;;;;3.84;100.00;101390.19;4976907;28;20247;-63
2023/12/27 03:09:44;;;;;;;1.00;0.60;;;;;;;3.82;100.00;101390.34;4963150;28;20208;-64
2023/12/27 03:12:13;;;;;;;0.80;0.50;;;;;;;3.76;100.00;101393.59;4973613;28;20199;-64
2023/12/27 03:14:42;;;;;;;2.95;1.23;;;;;;;3.75;100.00;101397.25;4978547;28;20247;-64
2023/12/27 03:17:12;;;;;;;2.65;1.13;;;;;;;3.73;100.00;101398.38;4984496;28;20208;-65
2023/12/27 03:19:41;;;;;;;1.00;0.70;;;;;;;3.75;100.00;101401.75;4971722;28;20196;-65
2023/12/27 03:22:10;;;;;;;0.88;0.70;;;;;;;3.70;100.00;101402.19;4976211;28;20699;-64
2023/12/27 03:24:39;;;;;;;0.90;0.70;;;;;;;3.74;100.00;101408.94;4974336;28;20195;-64
2023/12/27 03:27:08;;;;;;;0.90;0.60;;;;;;;3.71;100.00;101405.72;4967758;28;20192;-65
2023/12/27 03:29:36;;;;;;;1.80;1.50;;;;;;;3.69;100.00;101405.84;4972129;28;20668;-65
2023/12/27 03:32:06;;;;;;;1.75;1.55;;;;;;;3.70;100.00;101393.31;4967081;28;20560;-64
2023/12/27 03:34:38;;;;;;;1.27;1.10;;;;;;;3.71;100.00;101405.72;4971887;28;20254;-64
2023/12/27 03:37:07;;;;;;;0.80;0.50;;;;;;;3.66;100.00;101406.16;4975173;28;20302;-63
2023/12/27 03:39:36;;;;;;;0.80;0.50;;;;;;;3.65;100.00;101415.19;4966086;28;20214;-61
2023/12/27 03:42:05;;;;;;;4.43;0.70;;;;;;;3.56;100.00;101418.72;4958535;28;20196;-65
2023/12/27 03:44:33;;;;;;;1.23;0.60;;;;;;;3.57;100.00;101428.44;4964964;28;20196;-65
2023/12/27 03:47:02;;;;;;;4.55;1.23;;;;;;;3.55;100.00;101427.72;4972770;28;20202;-64
2023/12/27 03:49:31;;;;;;;1.67;1.50;;;;;;;3.55;100.00;101430.41;4970451;28;20194;-64
2023/12/27 03:52:01;;;;;;;4.25;1.23;;;;;;;3.64;100.00;101432.22;4965570;28;20207;-64
2023/12/27 03:54:31;;;;;;;0.80;0.55;;;;;;;3.55;100.00;101427.72;4967938;28;20203;-63
2023/12/27 03:57:00;;;;;;;1.25;0.90;;;;;;;3.44;100.00;101435.91;4974847;28;20722;-62
2023/12/27 03:59:28;;;;;;;2.58;1.77;;;;;;;3.53;100.00;101437.75;4965171;28;20223;-64
2023/12/27 04:01:57;;;;;;;1.55;0.95;;;;;;;3.52;100.00;101444.09;4969149;28;20200;-64
2023/12/27 04:04:26;;;;;;;1.33;1.15;;;;;;;3.57;100.00;101451.69;4959591;28;20187;-65
2023/12/27 04:06:55;;;;;;;1.10;0.60;;;;;;;3.50;100.00;101440.69;4973455;28;20200;-65
2023/12/27 04:09:25;;;;;;;2.83;2.22;;;;;;;3.48;100.00;101451.56;4975050;28;20457;-63
2023/12/27 04:11:53;;;;;;;0.80;0.50;;;;;;;3.51;100.00;101453.09;4974944;28;20204;-64
2023/12/27 04:14:22;;;;;;;0.90;0.60;;;;;;;3.46;100.00;101450.00;4956617;28;20648;-63
2023/12/27 04:16:52;;;;;;;1.42;0.93;;;;;;;3.50;100.00;101448.72;4963835;28;20207;-64
2023/12/27 04:19:20;;;;;;;0.80;0.50;;;;;;;3.52;100.00;101452.13;4962845;28;20230;-64
2023/12/27 04:21:49;;;;;;;4.93;1.67;;;;;;;3.44;100.00;101446.59;4975139;28;20596;-63
2023/12/27 04:24:18;;;;;;;1.95;1.00;;;;;;;3.36;100.00;101444.66;4964614;28;20187;-64
2023/12/27 04:26:48;;;;;;;1.15;0.60;;;;;;;3.37;100.00;101451.72;4959203;28;20196;-64
2023/12/27 04:29:17;;;;;;;1.20;1.10;;;;;;;3.38;100.00;101447.22;4986774;28;20203;-64
2023/12/27 04:31:46;;;;;;;0.90;0.80;;;;;;;3.34;100.00;101448.47;4968579;28;20198;-64
2023/12/27 04:34:14;;;;;;;1.65;0.73;;;;;;;3.31;100.00;101456.78;4968608;28;20203;-64
2023/12/27 04:36:43;;;;;;;3.85;1.08;;;;;;;3.24;100.00;101451.16;4966884;28;20223;-65
2023/12/27 04:39:12;;;;;;;2.38;0.77;;;;;;;3.14;100.00;101457.50;4974220;28;20215;-64
2023/12/27 04:41:41;;;;;;;0.90;0.60;;;;;;;3.30;100.00;101461.28;4972155;28;20552;-64
2023/12/27 04:44:11;;;;;;;2.70;0.80;;;;;;;3.19;100.00;101463.25;4972533;28;20199;-60
2023/12/27 04:46:40;;;;;;;1.00;0.85;;;;;;;3.19;100.00;101463.25;4968161;28;20215;-64
2023/12/27 04:49:09;;;;;;;1.30;0.70;;;;;;;3.24;100.00;101464.53;4971804;28;20736;-64
2023/12/27 04:51:39;;;;;;;0.90;0.65;;;;;;;3.14;100.00;101454.81;4965919;28;20204;-64
2023/12/27 04:54:07;;;;;;;12.25;2.47;;;;;;;3.27;100.00;101466.06;4971327;28;20575;-64
2023/12/27 04:56:54;;;;;;;6.10;0.80;;;;;;;3.28;100.00;101465.09;4967540;28;20293;-64
2023/12/27 04:59:25;;;;;;;3.47;1.00;;;;;;;3.33;100.00;101468.19;4960784;28;20226;-65
2023/12/27 05:01:54;;;;;;;0.90;0.63;;;;;;;3.23;100.00;101470.88;4971245;28;20207;-63
2023/12/27 05:04:24;;;;;;;0.90;0.50;;;;;;;3.21;100.00;101472.81;4961292;28;20207;-64
2023/12/27 05:06:53;;;;;;;2.92;0.90;;;;;;;3.05;100.00;101475.19;4965896;28;20681;-63
2023/12/27 05:09:22;;;;;;;3.78;0.95;;;;;;;3.06;100.00;101480.41;4974007;28;20242;-61
2023/12/27 05:11:51;;;;;;;3.30;1.05;;;;;;;3.00;100.00;101482.81;4965313;28;20226;-63
2023/12/27 05:14:20;;;;;;;0.80;0.50;;;;;;;3.17;100.00;101486.63;4966959;28;20192;-66
2023/12/27 05:16:50;;;;;;;1.80;1.20;;;;;;;3.07;100.00;101489.28;4968268;28;20187;-66
2023/12/27 05:19:19;;;;;;;1.10;0.50;;;;;;;2.99;100.00;101484.66;4963572;28;20207;-65
2023/12/27 05:21:48;;;;;;;0.90;0.60;;;;;;;2.95;100.00;101493.91;4973804;28;20242;-65
2023/12/27 05:24:17;;;;;;;1.02;0.80;;;;;;;2.90;100.00;101485.47;4987084;28;20249;-66
2023/12/27 05:26:45;;;;;;;1.10;0.70;;;;;;;2.80;100.00;101495.31;4974571;28;20192;-65
2023/12/27 05:29:14;;;;;;;3.08;0.93;;;;;;;2.83;100.00;101494.16;4968761;28;20199;-63
2023/12/27 05:31:43;;;;;;;2.55;2.45;;;;;;;2.94;100.00;101497.59;4971596;28;20191;-64
2023/12/27 05:34:13;;;;;;;2.35;0.88;;;;;;;2.97;100.00;101504.47;4968636;28;20274;-64
2023/12/27 05:36:42;;;;;;;19.45;2.88;;;;;;;2.81;100.00;101505.00;4973485;28;20594;-62
2023/12/27 05:39:12;;;;;;;4.82;1.13;;;;;;;2.93;100.00;101517.28;4961988;28;20287;-64
2023/12/27 05:41:40;;;;;;;1.38;0.90;;;;;;;2.93;100.00;101517.28;4966794;28;20187;-63
2023/12/27 05:44:25;;;;;;;2.20;1.00;;;;;;;2.82;100.00;101512.03;4957002;28;20198;-64
2023/12/27 05:46:54;;;;;;;2.00;1.27;;;;;;;2.81;100.00;101518.34;4962240;28;20281;-64
2023/12/27 05:49:24;;;;;;;4.72;1.77;;;;;;;2.92;100.00;101520.94;4962916;28;20455;-64
2023/12/27 05:51:53;;;;;;;6.60;2.58;;;;;;;2.87;100.00;101531.19;4954772;28;20243;-64
2023/12/27 05:54:21;;;;;;;1.75;1.00;;;;;;;2.95;100.00;101534.00;4957701;28;20207;-67
2023/12/27 05:56:50;;;;;;;1.75;0.88;;;;;;;3.04;100.00;101535.88;4965464;28;20219;-61
2023/12/27 05:59:19;;;;;;;1.98;1.75;;;;;;;2.99;100.00;101534.59;4962996;28;20208;-64
2023/12/27 06:01:48;;;;;;;4.07;0.98;;;;;;;2.98;100.00;101528.41;4973683;28;20191;-64
2023/12/27 06:04:17;;;;;;;1.02;0.70;;;;;;;3.00;100.00;101545.13;4975070;28;20732;-64
2023/12/27 06:06:49;;;;;;;1.55;1.30;;;;;;;2.93;100.00;101549.34;4967635;28;20195;-64
2023/12/27 06:09:18;;;;;;;15.32;0.90;;;;;;;2.93;100.00;101543.16;4971729;28;20199;-64
2023/12/27 06:11:46;;;;;;;4.32;1.38;;;;;;;2.92;100.00;101547.66;4971608;28;20261;-64
2023/12/27 06:14:15;;;;;;;1.05;0.75;;;;;;;3.09;100.00;101551.50;4958586;28;20290;-63
2023/12/27 06:16:44;;;;;;;5.00;0.90;;;;;;;3.02;100.00;101559.22;4972342;28;20211;-63
2023/12/27 06:19:12;;;;;;;1.23;1.13;;;;;;;3.01;100.00;101565.53;4968124;28;20750;-65
2023/12/27 06:21:41;;;;;;;1.55;1.10;;;;;;;2.98;100.00;101562.31;4974321;28;20202;-65
2023/12/27 06:24:11;;;;;;;1.95;0.77;;;;;;;2.90;100.00;101575.53;4963286;28;20743;-64
2023/12/27 06:26:40;;;;;;;2.65;1.85;;;;;;;2.93;100.00;101575.25;4970707;28;20215;-63
2023/12/27 06:29:09;;;;;;;1.00;0.70;;;;;;;2.88;100.00;101580.16;4976612;28;20278;-64
2023/12/27 06:31:38;;;;;;;4.00;1.05;;;;;;;2.86;100.00;101577.59;4960789;28;20204;-64
2023/12/27 06:34:07;;;;;;;0.90;0.60;;;;;;;2.79;100.00;101580.97;4975054;28;20191;-64
2023/12/27 06:36:36;;;;;;;1.80;1.70;;;;;;;2.84;100.00;101582.25;4969380;28;20239;-64
2023/12/27 06:39:06;;;;;;;6.97;2.25;;;;;;;2.75;100.00;101583.06;4968186;28;20572;-65
2023/12/27 06:41:36;;;;;;;1.05;0.90;;;;;;;2.63;100.00;101593.00;4970052;28;20629;-64
2023/12/27 06:44:05;;;;;;;0.90;0.50;;;;;;;2.66;100.00;101588.38;4972752;28;20191;-64
2023/12/27 06:46:34;;;;;;;2.17;1.48;;;;;;;2.66;100.00;101589.22;4973083;28;20203;-63
2023/12/27 06:49:02;;;;;;;2.67;0.88;;;;;;;2.72;100.00;101579.81;4968787;28;20188;-65
2023/12/27 06:51:31;;;;;;;0.90;0.50;;;;;;;2.59;100.00;101572.03;4973282;28;20253;-65
2023/12/27 06:54:01;;;;;;;1.80;1.33;;;;;;;2.56;100.00;101577.66;4969937;28;20294;-65
2023/12/27 06:56:29;;;;;;;2.03;1.30;;;;;;;2.66;100.00;101578.53;4970776;28;20271;-65
2023/12/27 06:58:59;;;;;;;1.95;0.65;;;;;;;2.48;100.00;101583.63;4966203;28;20218;-65
2023/12/27 07:01:28;;;;;;;1.83;0.80;;;;;;;2.48;100.00;101580.97;4966005;28;20196;-64
2023/12/27 07:03:57;;;;;;;1.38;1.10;;;;;;;2.43;100.00;101593.03;4970171;28;20198;-64
2023/12/27 07:06:26;;;;;;;2.65;0.93;;;;;;;2.33;100.00;101594.81;4968384;28;20277;-65
2023/12/27 07:08:54;;;;;;;15.20;1.20;;;;;;;2.40;100.00;101604.00;4969285;28;20700;-64
2023/12/27 07:11:24;;;;;;;1.10;0.73;;;;;;;2.43;100.00;101609.06;4962823;28;20204;-64
2023/12/27 07:13:54;;;;;;;1.10;0.90;;;;;;;2.47;100.00;101605.16;4973952;28;20195;-64
2023/12/27 07:16:24;;;;;;;2.10;0.80;;;;;;;2.35;100.00;101603.53;4965776;28;20223;-64
2023/12/27 07:18:53;;;;;;;9.82;1.80;;;;;;;2.30;100.00;101611.09;4971353;28;20202;-66
2023/12/27 07:21:22;;;;;;;2.65;0.95;;;;;;;2.46;100.00;101619.50;4973641;28;20278;-64
2023/12/27 07:23:51;;;;;;;0.95;0.75;;;;;;;2.51;100.00;101617.28;4972952;28;20196;-65
2023/12/27 07:26:20;;;;;;;28.92;2.35;;;;;;;2.41;100.00;101624.38;4974285;28;20777;-64
2023/12/27 07:28:49;;;;;;;0.80;0.50;;;;;;;2.41;100.00;101627.06;4964875;28;20214;-64
2023/12/27 07:31:18;;;;;;;1.50;1.00;;;;;;;2.45;100.00;101628.50;4970150;28;20598;-65
2023/12/27 07:33:48;;;;;;;1.33;0.85;;;;;;;2.44;100.00;101635.66;4974988;28;20660;-65
2023/12/27 07:36:18;;;;;;;2.15;0.90;;;;;;;2.49;100.00;101640.59;4968309;28;20220;-65
2023/12/27 07:38:50;;;;;;;1.00;0.80;;;;;;;2.50;100.00;101631.59;4965499;28;20542;-65
2023/12/27 07:41:19;;;;;;;1.50;0.88;;;;;;;2.53;100.00;101626.00;4975080;28;20203;-64
2023/12/27 07:43:48;;;;;;;1.45;1.35;;;;;;;2.50;100.00;101626.25;4965689;28;20187;-66
2023/12/27 07:46:16;;;;;;;1.55;0.60;;;;;;;2.50;100.00;101631.59;4971175;28;20282;-65
2023/12/27 07:48:46;;;;;;;1.15;1.02;;;;;;;2.55;100.00;101629.38;4967148;28;20609;-65
2023/12/27 07:51:15;;;;;;;0.80;0.50;;;;;;;2.51;100.00;101620.78;4975741;28;20183;-64
2023/12/27 07:53:44;;;;;;;1.60;1.50;;;;;;;2.62;100.00;101626.03;4968230;28;20603;-66
2023/12/27 07:56:15;;;;;;;1.02;0.90;;;;;;;2.58;100.00;101623.75;4972555;28;20302;-64
2023/12/27 07:58:44;;;;;;;1.50;1.13;;;;;;;2.66;100.00;101625.78;4969697;28;20586;-65
2023/12/27 08:01:13;;;;;;;1.70;0.68;;;;;;;2.65;100.00;101635.63;4974388;28;20207;-65
2023/12/27 08:03:44;;;;;;;2.40;0.90;;;;;;;2.62;100.00;101639.41;4963612;28;20187;-65
2023/12/27 08:06:15;;;;;;;1.75;1.02;;;;;;;2.69;100.00;101645.06;4972032;28;20219;-65
2023/12/27 08:08:43;;;;;;;0.80;0.55;;;;;;;2.71;100.00;101645.75;4963327;28;20242;-65
2023/12/27 08:11:12;;;;;;;0.80;0.50;;;;;;;2.73;100.00;101648.31;4969873;28;20238;-64
2023/12/27 08:13:41;;;;;;;1.00;0.70;;;;;;;2.85;100.00;101645.44;4961882;28;20183;-64
2023/12/27 08:16:10;;;;;;;9.23;2.25;;;;;;;2.93;100.00;101648.28;4958953;28;20229;-64
2023/12/27 08:18:39;;;;;;;1.23;0.90;;;;;;;3.18;100.00;101654.13;4974758;28;20199;-64
2023/12/27 08:21:08;;;;;;;1.63;0.88;;;;;;;3.41;100.00;101660.97;4966649;28;20200;-66
2023/12/27 08:23:38;;;;;;;1.27;0.77;;;;;;;3.38;100.00;101659.41;4967035;28;20217;-63
2023/12/27 08:26:08;;;;;;;0.95;0.70;;;;;;;3.48;100.00;101664.78;4966879;28;20580;-63
2023/12/27 08:28:37;;;;;;;1.23;0.70;;;;;;;3.55;100.00;101662.38;4964956;28;20188;-65
2023/12/27 08:31:06;;;;;;;6.25;2.05;;;;;;;3.50;100.00;101660.97;4968353;28;20192;-64
2023/12/27 08:33:35;;;;;;;1.83;1.13;;;;;;;3.67;100.00;101670.19;4963306;28;20738;-65
2023/12/27 08:36:04;;;;;;;3.88;1.00;;;;;;;3.77;100.00;101673.72;4964767;28;20244;-63
2023/12/27 08:38:33;;;;;;;13.73;1.77;;;;;;;3.87;100.00;101666.50;4968787;28;20559;-64
2023/12/27 08:41:04;;;;;;;8.32;0.82;;;;;;;3.83;100.00;101677.63;4960286;28;20611;-63
2023/12/27 08:43:35;;;;;;;2.17;0.80;;;;;;;3.79;100.00;101685.13;4966382;28;20192;-64
2023/12/27 08:46:08;;;;;;;3.75;1.10;;;;;;;3.83;100.00;101673.13;4970635;28;20238;-64
2023/12/27 08:48:37;;;;;;;4.70;0.98;;;;;;;3.83;100.00;101681.16;4964980;28;20195;-64
2023/12/27 08:51:06;;;;;;;7.60;1.02;;;;;;;3.90;100.00;101679.63;4968070;28;20196;-62
2023/12/27 08:53:35;;;;;;;18.90;1.10;;;;;;;4.07;100.00;101685.25;4967847;28;20211;-65
2023/12/27 08:56:06;;;;;;;1.17;0.80;;;;;;;4.06;100.00;101694.31;4969056;28;20694;-66
2023/12/27 08:58:35;;;;;;;1.10;0.80;;;;;;;4.26;100.00;101696.00;4965288;28;20215;-64
2023/12/27 09:01:04;;;;;;;4.40;1.25;;;;;;;4.23;100.00;101691.75;4967276;28;20578;-64
2023/12/27 09:03:33;;;;;;;4.72;0.90;;;;;;;4.33;100.00;101691.75;4968608;28;20571;-65
2023/12/27 09:06:02;;;;;;;7.90;2.58;;;;;;;4.36;100.00;101696.81;4960520;28;20706;-65
2023/12/27 09:08:31;;;;;;;1.10;0.73;;;;;;;4.25;100.00;101695.16;4966568;28;20681;-64
2023/12/27 09:11:00;;;;;;;3.05;1.67;;;;;;;4.29;100.00;101695.72;4976572;28;20191;-64
2023/12/27 09:13:30;;;;;;;0.90;0.60;;;;;;;4.29;100.00;101690.34;4971571;28;20250;-64
2023/12/27 09:16:00;;;;;;;0.90;0.60;;;;;;;4.25;100.00;101687.13;4960272;28;20590;-64
2023/12/27 09:18:28;;;;;;;1.35;0.80;;;;;;;4.33;100.00;101692.59;4964327;28;20196;-63
2023/12/27 09:20:57;;;;;;;1.95;1.10;;;;;;;4.36;100.00;101688.78;4958764;28;20614;-65
2023/12/27 09:23:26;;;;;;;2.55;1.00;;;;;;;4.38;100.00;101694.84;4963844;28;20270;-62
2023/12/27 09:25:55;;;;;;;1.73;1.35;;;;;;;4.56;100.00;101687.75;4966214;28;20725;-62
2023/12/27 09:28:25;;;;;;;1.45;1.25;;;;;;;4.54;100.00;101695.13;4963526;28;20192;-63
2023/12/27 09:30:55;;;;;;;3.97;1.67;;;;;;;4.66;100.00;101702.00;4965012;28;20191;-64
2023/12/27 09:33:24;;;;;;;0.80;0.50;;;;;;;4.67;100.00;101702.84;4969216;28;20195;-63
2023/12/27 09:35:55;;;;;;;3.97;1.25;;;;;;;4.93;100.00;101703.91;4966623;28;20239;-66
2023/12/27 09:38:24;;;;;;;4.20;0.85;;;;;;;4.94;100.00;101707.44;4970668;28;20290;-65
2023/12/27 09:40:53;;;;;;;1.48;1.10;;;;;;;4.76;100.00;101700.13;4967987;28;20212;-66
2023/12/27 09:43:24;;;;;;;3.88;0.70;;;;;;;4.80;100.00;101706.06;4966577;28;20660;-63
2023/12/27 09:45:55;;;;;;;1.85;1.10;;;;;;;4.89;100.00;101699.81;4961855;28;20212;-64
2023/12/27 09:48:27;;;;;;;0.90;0.65;;;;;;;4.90;100.00;101696.16;4964369;28;20278;-64
2023/12/27 09:50:58;;;;;;;6.75;2.00;;;;;;;5.04;99.87;101698.34;4965809;28;20202;-64
2023/12/27 09:53:27;;;;;;;4.03;1.50;;;;;;;5.22;99.91;101696.59;4969333;28;20628;-66
2023/12/27 09:55:56;;;;;;;1.42;0.60;;;;;;;5.23;98.74;101702.78;4966366;28;20223;-64
2023/12/27 09:58:28;;;;;;;1.75;0.88;;;;;;;5.29;97.97;101696.00;4966744;28;20200;-63
2023/12/27 10:01:02;;;;;;;2.47;1.25;;;;;;;5.36;98.06;101695.25;4963313;28;20208;-64
2023/12/27 10:03:35;;;;;;;1.98;0.93;;;;;;;5.36;97.44;101694.41;4965650;28;20196;-65
2023/12/27 10:06:16;;;;;;;6.97;0.90;;;;;;;6.62;92.52;101692.50;4962611;28;20230;-64
2023/12/27 10:08:45;;;;;;;6.55;1.88;;;;;;;7.59;94.74;101693.03;4962002;28;20216;-64
2023/12/27 10:11:16;;;;;;;2.85;0.82;;;;;;;8.70;95.37;101687.09;4960109;28;20212;-64
2023/12/27 10:13:46;;;;;;;0.98;0.80;;;;;;;9.13;90.95;101686.66;4962652;28;20187;-64
2023/12/27 10:16:17;;;;;;;1.70;1.10;;;;;;;9.55;82.25;101685.47;4972605;28;20230;-64
2023/12/27 10:18:46;;;;;;;9.63;1.35;;;;;;;9.99;85.96;101691.13;4961066;28;20652;-64
2023/12/27 10:21:18;;;;;;;3.15;1.80;;;;;;;10.31;82.30;101679.28;4964220;28;20235;-65
2023/12/27 10:23:47;;;;;;;2.17;0.70;;;;;;;9.96;80.26;101689.66;4969888;28;20521;-64
2023/12/27 10:26:16;;;;;;;1.77;0.97;;;;;;;9.97;76.70;101677.78;4970227;28;20537;-64
2023/12/27 10:28:46;;;;;;;5.07;0.80;;;;;;;10.53;82.23;101675.72;4965971;28;20428;-63
2023/12/27 10:31:16;;;;;;;1.93;0.83;;;;;;;9.37;73.69;101676.78;4969811;28;20913;-64
2023/12/27 10:33:46;;;;;;;4.00;1.53;;;;;;;10.16;87.11;101670.28;4957766;28;20808;-63
2023/12/27 10:36:17;;;;;;;2.67;1.13;;;;;;;11.01;81.27;101662.69;4967669;28;20429;-65
2023/12/27 10:38:46;;;;;;;2.60;1.17;;;;;;;11.20;79.84;101660.25;4967565;28;20431;-64
2023/12/27 10:41:17;;;;;;;4.80;1.03;;;;;;;10.11;73.79;101669.94;4971114;28;20505;-65
2023/12/27 10:43:48;;;;;;;5.73;1.10;;;;;;;10.53;78.94;101659.47;4962464;28;20414;-65
2023/12/27 10:46:18;;;;;;;1.30;0.90;;;;;;;10.18;81.25;101660.09;4973302;28;20466;-64
2023/12/27 10:48:52;;;;;;;4.83;0.80;;;;;;;9.13;77.78;101659.66;4962594;28;20424;-65
2023/12/27 10:51:24;;;;;;;1.60;1.07;;;;;;;8.80;80.21;101652.69;4968896;28;20418;-65
2023/12/27 10:54:01;;;;;;;3.93;1.20;;;;;;;9.69;84.90;101638.78;4967099;28;20420;-65
2023/12/27 10:56:35;;;;;;;3.63;0.70;;;;;;;9.97;76.64;101634.53;4965427;28;20440;-65
2023/12/27 10:59:05;;;;;;;1.87;0.97;;;;;;;8.78;82.23;101633.09;4965391;28;20917;-66
2023/12/27 11:01:38;;;;;;;6.50;1.30;;;;;;;10.03;78.68;101627.56;4972095;28;20463;-65
2023/12/27 11:04:09;;;;;;;2.70;1.17;;;;;;;10.69;79.82;101632.25;4970810;28;20807;-64
2023/12/27 11:06:39;;;;;;;4.50;1.60;;;;;;;10.44;73.01;101628.09;4968616;28;20462;-65
2023/12/27 11:09:09;;;;;;;16.10;1.03;;;;;;;10.40;76.79;101633.03;4966439;28;20431;-65
2023/12/27 11:11:38;;;;;;;2.07;1.13;;;;;;;10.51;75.76;101625.47;4964408;28;20432;-66
2023/12/27 11:14:11;;;;;;;3.23;0.83;;;;;;;10.32;72.13;101629.53;4967445;28;20441;-64
2023/12/27 11:16:41;;;;;;;3.53;1.03;;;;;;;10.29;78.23;101629.91;4969231;28;20517;-64
2023/12/27 11:19:10;;;;;;;3.23;0.87;;;;;;;10.21;73.51;101632.72;4969423;28;20426;-65
2023/12/27 11:21:40;;;;;;;1.60;0.87;;;;;;;10.50;76.50;101621.97;4965850;28;20445;-64
2023/12/27 11:24:09;;;;;;;2.40;0.83;;;;;;;10.49;75.39;101622.97;4972977;28;20488;-63
2023/12/27 11:26:38;;;;;;;1.93;1.43;;;;;;;9.90;75.89;101630.88;4971192;28;20464;-66
2023/12/27 11:29:09;;;;;;;3.53;1.23;;;;;;;9.61;73.32;101630.72;4968698;28;20797;-64
2023/12/27 11:31:42;;;;;;;12.37;0.97;;;;;;;9.24;79.73;101627.88;4971870;28;20413;-64
2023/12/27 11:34:13;;;;;;;2.50;1.33;;;;;;;10.35;76.66;101621.94;4975031;28;20410;-65
2023/12/27 11:36:41;;;;;;;10.03;1.00;;;;;;;9.66;76.46;101611.28;4971619;28;20423;-64